createdAt,value
2023-03-26T00:02:45.371Z,99334.91
2023-03-26T00:07:47.164Z,99329.81
2023-03-26T00:12:48.772Z,99338.19
2023-03-26T00:17:51.200Z,99335.66
2023-03-26T00:22:55.211Z,99350.84
2023-03-26T00:27:57.302Z,99344.94
2023-03-26T00:32:59.099Z,99329.91
2023-03-26T00:38:01.162Z,99331.56
2023-03-26T00:43:10.131Z,99331.50
2023-03-26T00:48:12.883Z,99328.91
2023-03-26T00:53:15.785Z,99336.44
2023-03-26T00:58:18.199Z,99324.78
2023-03-26T01:03:28.185Z,99321.44
2023-03-26T01:08:35.483Z,99319.75
2023-03-26T01:13:39.397Z,99312.22
2023-03-26T01:18:41.384Z,99315.56
2023-03-26T01:23:51.200Z,99308.06
2023-03-26T01:28:57.375Z,99293.00
2023-03-26T01:34:12.380Z,99280.41
2023-03-26T01:39:22.957Z,99282.00
2023-03-26T01:44:33.570Z,99276.13
2023-03-26T01:49:35.557Z,99274.44
2023-03-26T01:54:37.206Z,99277.88
2023-03-26T02:00:12.289Z,99277.91
2023-03-26T02:05:25.286Z,99277.09
2023-03-26T02:10:31.912Z,99271.22
2023-03-26T02:15:33.951Z,99264.50
2023-03-26T02:20:35.528Z,99275.38
2023-03-26T02:25:39.873Z,99263.59
2023-03-26T02:30:43.352Z,99264.41
2023-03-26T02:35:45.996Z,99257.72
2023-03-26T02:40:47.846Z,99255.25
2023-03-26T02:45:50.245Z,99267.81
2023-03-26T02:51:22.028Z,99266.91
2023-03-26T02:56:38.754Z,99279.41
2023-03-26T03:02:09.718Z,99288.59
2023-03-26T03:07:14.449Z,99289.41
2023-03-26T03:12:16.342Z,99291.00
2023-03-26T03:17:20.771Z,99284.31
2023-03-26T03:22:22.414Z,99283.47
2023-03-26T03:27:26.187Z,99281.78
2023-03-26T03:32:42.372Z,99286.75
2023-03-26T03:37:45.264Z,99269.19
2023-03-26T03:42:47.387Z,99262.50
2023-03-26T03:47:56.297Z,99264.22
2023-03-26T03:53:05.745Z,99267.56
2023-03-26T03:58:09.318Z,99272.59
2023-03-26T04:03:14.328Z,99269.22
2023-03-26T04:08:16.984Z,99258.34
2023-03-26T04:13:22.280Z,99263.38
2023-03-26T04:18:32.389Z,99265.09
2023-03-26T04:23:40.335Z,99247.53
2023-03-26T04:29:01.089Z,99257.50
2023-03-26T04:34:24.203Z,99260.78
2023-03-26T04:39:39.038Z,99248.22
2023-03-26T04:44:59.876Z,99252.34
2023-03-26T04:50:08.440Z,99250.69
2023-03-26T04:55:38.685Z,99245.72
2023-03-26T05:00:49.744Z,99251.63
2023-03-26T05:05:51.888Z,99248.34
2023-03-26T05:10:53.800Z,99241.72
2023-03-26T05:16:03.733Z,99243.41
2023-03-26T05:21:14.817Z,99257.72
2023-03-26T05:26:17.333Z,99254.44
2023-03-26T05:31:21.260Z,99262.84
2023-03-26T05:36:28.401Z,99257.97
2023-03-26T05:41:49.278Z,99259.72
2023-03-26T05:46:52.241Z,99268.13
2023-03-26T05:51:58.272Z,99259.81
2023-03-26T05:57:33.234Z,99261.50
2023-03-26T06:02:56.503Z,99264.09
2023-03-26T06:08:37.018Z,99261.69
2023-03-26T06:13:40.197Z,99260.84
2023-03-26T06:18:42.059Z,99271.72
2023-03-26T06:24:01.740Z,99271.75
2023-03-26T06:29:24.761Z,99280.97
2023-03-26T06:34:44.966Z,99277.59
2023-03-26T06:39:46.937Z,99275.03
2023-03-26T06:44:54.421Z,99273.34
2023-03-26T06:50:14.859Z,99286.78
2023-03-26T06:55:36.773Z,99290.09
2023-03-26T07:00:53.770Z,99285.84
2023-03-26T07:06:14.187Z,99288.31
2023-03-26T07:11:35.263Z,99294.00
2023-03-26T07:16:49.141Z,99284.53
2023-03-26T07:22:06.350Z,99282.72
2023-03-26T07:28:04.359Z,99275.94
2023-03-26T07:33:45.633Z,99269.03
2023-03-26T07:39:19.190Z,99260.59
2023-03-26T07:44:49.795Z,99226.00
2023-03-26T07:50:18.321Z,99216.75
2023-03-26T07:55:57.510Z,99218.94
2023-03-26T08:01:49.201Z,99209.41
2023-03-26T08:07:24.670Z,99200.91
2023-03-26T08:13:11.768Z,99205.19
2023-03-26T08:18:44.713Z,99196.59
2023-03-26T08:24:16.285Z,99193.50
2023-03-26T08:29:33.196Z,99202.38
2023-03-26T08:34:34.855Z,99197.00
2023-03-26T08:39:38.871Z,99182.84
2023-03-26T08:45:10.487Z,99183.38
2023-03-26T08:50:59.307Z,99168.19
2023-03-26T08:56:25.924Z,99153.31
2023-03-26T09:01:30.762Z,99149.22
2023-03-26T09:06:48.981Z,99134.66
2023-03-26T09:12:08.452Z,99126.34
2023-03-26T09:17:19.617Z,99114.13
2023-03-26T09:22:33.151Z,99103.41
2023-03-26T09:28:10.246Z,99095.09
2023-03-26T09:33:11.880Z,99089.28
2023-03-26T09:38:45.486Z,99078.69
2023-03-26T09:44:17.073Z,99073.03
2023-03-26T09:49:30.407Z,99066.00
2023-03-26T09:54:52.779Z,99064.97
2023-03-26T10:00:20.880Z,99045.97
2023-03-26T10:06:13.689Z,99033.31
2023-03-26T10:11:28.515Z,99026.22
2023-03-26T10:16:50.666Z,99002.84
2023-03-26T10:22:10.651Z,98993.97
2023-03-26T10:27:46.239Z,98977.75
2023-03-26T10:33:12.432Z,98971.78
2023-03-26T10:38:27.507Z,98955.69
2023-03-26T10:43:38.102Z,98950.88
2023-03-26T10:48:54.880Z,98932.56
2023-03-26T10:54:00.765Z,98920.28
2023-03-26T10:59:11.990Z,98922.81
2023-03-26T11:04:35.722Z,98910.13
2023-03-26T11:09:48.138Z,98895.34
2023-03-26T11:15:00.975Z,98875.38
2023-03-26T11:20:22.585Z,98872.16
2023-03-26T11:25:57.644Z,98856.53
2023-03-26T11:31:18.679Z,98832.38
2023-03-26T11:36:30.468Z,98824.28
2023-03-26T11:41:32.377Z,98807.03
2023-03-26T11:46:58.746Z,98800.34
2023-03-26T11:52:01.924Z,98775.88
2023-03-26T11:57:10.174Z,98779.13
2023-03-26T12:02:12.088Z,98770.09
2023-03-26T12:07:19.655Z,98764.06
2023-03-26T12:12:25.229Z,98746.22
2023-03-26T12:17:33.253Z,98742.41
2023-03-26T12:22:38.406Z,98720.88
2023-03-26T12:27:45.049Z,98709.88
2023-03-26T12:32:47.677Z,98704.75
2023-03-26T12:38:12.765Z,98697.06
2023-03-26T12:44:49.666Z,98681.38
2023-03-26T12:48:42.508Z,98679.22
2023-03-26T12:54:16.595Z,98677.72
2023-03-26T12:59:39.689Z,98670.34
2023-03-26T13:05:04.932Z,98661.78
2023-03-26T13:10:38.725Z,98657.59
2023-03-26T13:15:47.201Z,98653.75
2023-03-26T13:21:09.000Z,98647.66
2023-03-26T13:26:40.415Z,98625.66
2023-03-26T13:32:07.135Z,98618.91
2023-03-26T13:37:36.943Z,98614.88
2023-03-26T13:42:53.545Z,98610.97
2023-03-26T13:47:59.077Z,98608.56
2023-03-26T13:53:12.209Z,98593.44
2023-03-26T13:58:21.669Z,98588.34
2023-03-26T14:03:45.539Z,98590.00
2023-03-26T14:08:57.383Z,98576.16
2023-03-26T14:14:12.691Z,98562.31
2023-03-26T14:19:44.019Z,98538.13
2023-03-26T14:24:46.081Z,98509.88
2023-03-26T14:29:56.681Z,98496.44
2023-03-26T14:35:20.996Z,98502.03
2023-03-26T14:46:50.909Z,98488.00
2023-03-26T14:52:08.169Z,98490.78
2023-03-26T14:57:40.158Z,98482.66
2023-03-26T15:02:57.044Z,98483.88
2023-03-26T15:08:20.423Z,98475.66
2023-03-26T15:13:37.025Z,98467.16
2023-03-26T15:18:57.545Z,98459.25
2023-03-26T15:24:30.470Z,98475.03
2023-03-26T15:30:06.994Z,98468.47
2023-03-26T15:35:39.265Z,98454.59
2023-03-26T15:40:59.516Z,98455.59
2023-03-26T15:46:10.532Z,98456.19
2023-03-26T15:51:21.888Z,98461.75
2023-03-26T15:56:49.163Z,98453.69
2023-03-26T16:02:16.940Z,98447.31
2023-03-26T16:07:53.257Z,98446.13
2023-03-26T16:13:13.392Z,98447.84
2023-03-26T16:18:15.594Z,98443.25
2023-03-26T16:23:53.746Z,98450.25
2023-03-26T16:29:14.352Z,98475.72
2023-03-26T16:34:24.988Z,98482.38
2023-03-26T16:39:41.713Z,98472.84
2023-03-26T16:44:55.494Z,98492.78
2023-03-26T16:50:12.525Z,98492.66
2023-03-26T16:55:35.326Z,98496.44
2023-03-26T17:00:55.497Z,98496.69
2023-03-26T17:06:03.584Z,98512.16
2023-03-26T17:11:31.480Z,98517.66
2023-03-26T17:16:49.689Z,98525.03
2023-03-26T17:22:12.333Z,98521.97
2023-03-26T17:27:23.814Z,98541.38
2023-03-26T17:33:06.041Z,98542.63
2023-03-26T17:38:30.295Z,98544.50
2023-03-26T17:43:35.871Z,98545.66
2023-03-26T17:48:45.751Z,98551.03
2023-03-26T17:53:48.195Z,98555.50
2023-03-26T17:58:58.632Z,98559.72
2023-03-26T18:04:19.782Z,98560.72
2023-03-26T18:09:52.056Z,98562.47
2023-03-26T18:15:12.795Z,98557.66
2023-03-26T18:20:22.419Z,98556.88
2023-03-26T18:25:32.503Z,98556.06
2023-03-26T18:30:48.706Z,98552.06
2023-03-26T18:35:55.380Z,98562.13
2023-03-26T18:40:57.381Z,98570.78
2023-03-26T18:45:59.311Z,98541.50
2023-03-26T18:51:06.016Z,98538.97
2023-03-26T18:56:28.664Z,98526.63
2023-03-26T19:01:33.290Z,98513.28
2023-03-26T19:06:39.955Z,98506.88
2023-03-26T19:11:44.211Z,98500.00
2023-03-26T19:16:58.274Z,98492.25
2023-03-26T19:22:00.400Z,98478.09
2023-03-26T19:27:03.000Z,98487.31
2023-03-26T19:32:29.419Z,98472.34
2023-03-26T19:37:31.365Z,98453.47
2023-03-26T19:42:42.720Z,98466.94
2023-03-26T19:47:52.258Z,98460.56
2023-03-26T19:53:17.685Z,98469.03
2023-03-26T19:58:19.801Z,98456.38
2023-03-26T20:03:39.130Z,98459.06
2023-03-26T20:08:40.960Z,98464.97
2023-03-26T20:13:42.893Z,98454.97
2023-03-26T20:18:44.512Z,98447.31
2023-03-26T20:23:46.143Z,98455.81
2023-03-26T20:28:52.632Z,98449.13
2023-03-26T20:33:54.849Z,98453.34
2023-03-26T20:38:57.381Z,98440.66
2023-03-26T20:43:58.979Z,98438.94
2023-03-26T20:49:00.778Z,98439.06
2023-03-26T20:54:02.401Z,98424.06
2023-03-26T20:59:11.183Z,98412.31
2023-03-26T21:04:14.418Z,98410.66
2023-03-26T21:09:23.509Z,98414.81
2023-03-26T21:14:31.459Z,98405.66
2023-03-26T21:19:33.373Z,98403.97
2023-03-26T21:24:59.531Z,98402.50
2023-03-26T21:30:01.375Z,98394.06
2023-03-26T21:35:05.151Z,98383.97
2023-03-26T21:40:26.079Z,98385.84
2023-03-26T21:45:28.563Z,98375.00
2023-03-26T21:50:30.538Z,98366.69
2023-03-26T21:55:43.013Z,98362.50
2023-03-26T22:01:08.632Z,98367.59
2023-03-26T22:06:16.069Z,98354.31
2023-03-26T22:11:17.984Z,98354.34
2023-03-26T22:16:25.077Z,98354.47
2023-03-26T22:21:26.997Z,98349.50
2023-03-26T22:26:28.602Z,98356.31
2023-03-26T22:31:30.362Z,98358.09
2023-03-26T22:36:34.024Z,98359.75
2023-03-26T22:41:35.835Z,98342.22
2023-03-26T22:46:37.735Z,98341.56
2023-03-26T22:51:39.436Z,98339.13
2023-03-26T22:56:41.659Z,98331.66
2023-03-26T23:01:44.360Z,98332.59
2023-03-26T23:06:46.064Z,98323.47
2023-03-26T23:11:48.172Z,98309.28
2023-03-26T23:16:49.979Z,98303.53
2023-03-26T23:21:52.345Z,98303.69
2023-03-26T23:26:54.012Z,98302.25
2023-03-26T23:31:56.051Z,98307.28
2023-03-26T23:36:58.071Z,98305.66
2023-03-26T23:41:59.682Z,98304.19
2023-03-26T23:47:01.246Z,98302.56
2023-03-26T23:52:07.419Z,98298.50
2023-03-26T23:57:09.194Z,98280.94
